Time;durP1;ratioP1;P1;durP2;ratioP2;P2;SDS_P1;SDS_P2;PMS_P1;PMS_P2;Temp;Humidity;BMP_temperature;BMP_pressure;BME280_temperature;BME280_humidity;BME280_pressure;Samples;Min_cycle;Max_cycle;Signal;HPM_P1;HPM_P2
2023/07/12 00:00:47;;;;;;;3.28;1.00;;;;;;;18.78;100.00;100315.66;4925868;29;20134;-76
2023/07/12 00:03:13;;;;;;;4.18;1.02;;;;;;;18.70;100.00;100320.22;4938494;28;20043;-76
2023/07/12 00:05:38;;;;;;;3.50;0.80;;;;;;;18.65;100.00;100324.09;4943795;29;20049;-76
2023/07/12 00:08:04;;;;;;;3.05;0.95;;;;;;;18.63;100.00;100326.44;4913882;28;20027;-76
2023/07/12 00:10:31;;;;;;;2.70;0.70;;;;;;;18.55;100.00;100335.81;4929764;29;20031;-76
2023/07/12 00:12:56;;;;;;;4.25;0.77;;;;;;;18.50;100.00;100328.44;4927341;28;20034;-76
2023/07/12 00:15:28;;;;;;;4.55;0.90;;;;;;;18.45;100.00;100336.28;4918180;29;20432;-76
2023/07/12 00:17:54;;;;;;;4.80;0.85;;;;;;;18.41;100.00;100336.16;4928406;28;20479;-76
2023/07/12 00:20:28;;;;;;;3.30;0.90;;;;;;;18.33;100.00;100339.94;4923798;29;20027;-76
2023/07/12 00:22:53;;;;;;;5.00;1.20;;;;;;;18.31;100.00;100337.47;4942981;29;20035;-75
2023/07/12 00:25:20;;;;;;;3.47;0.80;;;;;;;18.28;100.00;100331.72;4929365;29;20063;-76
2023/07/12 00:27:45;;;;;;;5.20;1.00;;;;;;;18.22;100.00;100333.94;4941862;29;20031;-76
2023/07/12 00:30:23;;;;;;;2.85;1.00;;;;;;;18.21;100.00;100331.47;4913772;29;20039;-76
2023/07/12 00:32:52;;;;;;;2.63;0.85;;;;;;;18.14;100.00;100340.50;4916839;28;20125;-76
2023/07/12 00:35:24;;;;;;;4.00;0.98;;;;;;;18.11;100.00;100338.38;4949658;28;20027;-76
2023/07/12 00:37:52;;;;;;;3.13;0.90;;;;;;;18.06;100.00;100336.63;4929175;29;20035;-76
2023/07/12 00:41:01;;;;;;;3.83;0.80;;;;;;;18.00;100.00;100325.97;4930157;28;20113;-76
2023/07/12 00:43:29;;;;;;;3.38;0.90;;;;;;;17.96;100.00;100337.06;4935015;28;20031;-76
2023/07/12 00:45:55;;;;;;;3.00;1.10;;;;;;;17.92;100.00;100329.69;4945155;29;20209;-76
2023/07/12 00:48:20;;;;;;;3.42;0.90;;;;;;;17.88;100.00;100331.53;4924629;28;20121;-76
2023/07/12 00:50:48;;;;;;;6.20;1.00;;;;;;;17.87;100.00;100336.34;4941598;29;20038;-76
2023/07/12 00:53:18;;;;;;;4.55;0.93;;;;;;;17.82;100.00;100337.38;4929366;29;20019;-76
2023/07/12 00:56:01;;;;;;;4.78;1.13;;;;;;;17.75;100.00;100337.09;4944637;29;20475;-75
2023/07/12 00:58:29;;;;;;;2.77;0.80;;;;;;;17.73;100.00;100338.63;4962425;28;20391;-76
2023/07/12 01:00:55;;;;;;;2.03;1.02;;;;;;;17.71;100.00;100338.13;4918565;29;20078;-76
2023/07/12 01:03:21;;;;;;;4.60;1.15;;;;;;;17.68;100.00;100336.84;4938172;29;20059;-76
2023/07/12 01:05:47;;;;;;;2.45;0.80;;;;;;;17.65;100.00;100341.16;4925542;29;20027;-76
2023/07/12 01:08:13;;;;;;;3.65;1.20;;;;;;;17.60;100.00;100338.56;4925463;29;20035;-76
2023/07/12 01:10:39;;;;;;;4.05;1.00;;;;;;;17.61;100.00;100351.44;4925686;29;20488;-76
2023/07/12 01:13:05;;;;;;;3.78;1.02;;;;;;;17.57;100.00;100353.28;4925938;29;20098;-76
2023/07/12 01:15:32;;;;;;;3.55;0.98;;;;;;;17.56;100.00;100348.03;4914767;29;20574;-76
2023/07/12 01:17:58;;;;;;;2.08;1.00;;;;;;;17.52;100.00;100347.06;4907054;29;20035;-76
2023/07/12 01:20:23;;;;;;;3.03;1.00;;;;;;;17.51;100.00;100351.88;4903796;29;20365;-76
2023/07/12 01:22:52;;;;;;;3.53;0.93;;;;;;;17.48;100.00;100355.38;4942196;29;20038;-76
2023/07/12 01:25:18;;;;;;;3.17;1.20;;;;;;;17.45;100.00;100349.63;4909429;29;20032;-76
2023/07/12 01:27:44;;;;;;;5.05;1.27;;;;;;;17.45;100.00;100358.88;4909622;29;20040;-76
2023/07/12 01:30:09;;;;;;;6.07;1.08;;;;;;;17.45;100.00;100358.06;4916325;29;20071;-76
2023/07/12 01:32:35;;;;;;;5.38;1.33;;;;;;;17.43;100.00;100358.38;4953363;29;20106;-76
2023/07/12 01:35:01;;;;;;;3.55;1.27;;;;;;;17.36;100.00;100356.13;4916356;28;20095;-76
2023/07/12 01:37:26;;;;;;;5.82;1.38;;;;;;;17.33;100.00;100361.63;4959086;28;20362;-76
2023/07/12 01:39:53;;;;;;;4.13;1.02;;;;;;;17.30;100.00;100362.28;4916018;29;20036;-76
2023/07/12 01:42:18;;;;;;;3.88;1.00;;;;;;;17.28;100.00;100365.47;4953453;29;20091;-76
2023/07/12 01:44:44;;;;;;;2.10;0.82;;;;;;;17.27;100.00;100365.78;4924884;29;20032;-76
2023/07/12 01:47:10;;;;;;;3.75;1.35;;;;;;;17.19;100.00;100367.53;4923255;29;20491;-76
2023/07/12 01:49:35;;;;;;;5.05;1.25;;;;;;;17.17;100.00;100372.66;4924924;29;20028;-76
2023/07/12 01:52:01;;;;;;;3.70;1.33;;;;;;;17.14;100.00;100376.94;4908892;29;20515;-76
2023/07/12 01:54:26;;;;;;;3.83;1.40;;;;;;;17.13;100.00;100369.72;4901513;29;20448;-76
2023/07/12 01:56:52;;;;;;;4.53;1.05;;;;;;;17.13;100.00;100366.06;4929045;29;20492;-76
2023/07/12 01:59:17;;;;;;;4.35;1.20;;;;;;;17.10;100.00;100364.75;4913956;29;20036;-76
2023/07/12 02:01:43;;;;;;;2.95;1.10;;;;;;;17.09;100.00;100363.13;4937607;29;20091;-76
2023/07/12 02:04:08;;;;;;;3.83;1.50;;;;;;;17.05;100.00;100362.19;4919056;29;20404;-76
2023/07/12 02:06:34;;;;;;;4.97;1.50;;;;;;;17.06;100.00;100366.63;4924291;29;20028;-76
2023/07/12 02:08:59;;;;;;;2.53;1.15;;;;;;;16.98;100.00;100362.69;4940248;29;20043;-76
2023/07/12 02:11:25;;;;;;;5.03;1.17;;;;;;;16.96;100.00;100358.59;4910321;29;20035;-76
2023/07/12 02:13:50;;;;;;;3.75;1.30;;;;;;;16.93;100.00;100367.69;4947648;29;20034;-76
2023/07/12 02:16:16;;;;;;;4.13;1.45;;;;;;;16.88;100.00;100365.94;4939901;29;20031;-76
2023/07/12 02:18:41;;;;;;;3.67;1.10;;;;;;;16.89;100.00;100356.34;4913629;29;20397;-76
2023/07/12 02:24:09;;;;;;;5.53;1.20;;;;;;;16.82;100.00;100358.03;4945893;29;20468;-76
2023/07/12 02:26:35;;;;;;;3.22;1.40;;;;;;;16.76;100.00;100357.38;4911862;29;20058;-76
2023/07/12 02:29:01;;;;;;;6.38;1.45;;;;;;;16.72;100.00;100357.25;4933618;29;20036;-76
2023/07/12 02:31:29;;;;;;;6.72;1.30;;;;;;;16.73;100.00;100360.88;4920211;29;20027;-76
2023/07/12 02:33:55;;;;;;;3.78;1.13;;;;;;;16.68;100.00;100361.88;4908213;29;20028;-76
2023/07/12 02:36:20;;;;;;;6.38;1.25;;;;;;;16.66;100.00;100364.22;4937661;29;20027;-76
2023/07/12 02:38:48;;;;;;;4.20;1.73;;;;;;;16.59;100.00;100365.91;4945366;29;20527;-76
2023/07/12 02:41:17;;;;;;;6.07;1.40;;;;;;;16.59;100.00;100371.50;4924530;29;20066;-76
2023/07/12 02:43:43;;;;;;;3.92;1.25;;;;;;;16.51;100.00;100370.38;4924242;29;20035;-76
2023/07/12 02:46:09;;;;;;;4.40;1.30;;;;;;;16.48;100.00;100371.06;4908355;29;20055;-76
2023/07/12 02:48:35;;;;;;;4.38;1.00;;;;;;;16.44;100.00;100372.91;4936267;29;20543;-76
2023/07/12 02:51:00;;;;;;;4.47;1.70;;;;;;;16.44;100.00;100367.31;4923854;29;20480;-76
2023/07/12 02:53:28;;;;;;;7.40;1.83;;;;;;;16.39;100.00;100362.69;4892211;29;20044;-76
2023/07/12 02:55:53;;;;;;;6.25;1.48;;;;;;;16.36;100.00;100362.56;4923910;29;20128;-76
2023/07/12 02:58:19;;;;;;;5.78;1.30;;;;;;;16.33;100.00;100371.63;4923441;29;20043;-76
2023/07/12 03:00:44;;;;;;;6.25;1.40;;;;;;;16.26;100.00;100366.53;4923389;29;20476;-76
2023/07/12 03:03:10;;;;;;;6.40;1.58;;;;;;;16.23;100.00;100356.81;4923291;29;20052;-76
2023/07/12 03:05:36;;;;;;;3.03;1.13;;;;;;;16.20;100.00;100367.88;4923719;29;20032;-76
2023/07/12 03:08:02;;;;;;;4.82;1.35;;;;;;;16.15;100.00;100357.69;4939201;29;20040;-76
2023/07/12 03:10:27;;;;;;;5.55;1.55;;;;;;;16.14;100.00;100372.03;4911825;29;20038;-76
2023/07/12 03:12:54;;;;;;;5.72;1.75;;;;;;;16.11;100.00;100370.72;4927364;29;20127;-76
2023/07/12 03:15:20;;;;;;;5.55;1.88;;;;;;;16.09;100.00;100373.03;4918916;29;20031;-76
2023/07/12 03:17:45;;;;;;;3.50;1.20;;;;;;;16.07;100.00;100375.34;4919697;29;20042;-76
2023/07/12 03:20:11;;;;;;;4.13;1.83;;;;;;;16.07;100.00;100370.56;4939435;29;20039;-76
2023/07/12 03:22:37;;;;;;;6.57;1.60;;;;;;;16.02;100.00;100367.13;4935892;29;20082;-76
2023/07/12 03:25:02;;;;;;;4.57;1.58;;;;;;;15.98;100.00;100368.94;4927898;29;20027;-76
2023/07/12 03:27:28;;;;;;;5.05;1.45;;;;;;;15.97;100.00;100364.50;4938974;29;20362;-76
2023/07/12 03:29:53;;;;;;;4.72;1.60;;;;;;;15.92;100.00;100370.28;4890997;29;20481;-76
2023/07/12 03:32:19;;;;;;;4.65;1.35;;;;;;;15.94;100.00;100377.19;4904097;29;20035;-76
2023/07/12 03:34:44;;;;;;;6.63;1.65;;;;;;;15.91;100.00;100377.88;4934370;29;20043;-76
2023/07/12 03:37:12;;;;;;;4.35;1.38;;;;;;;15.89;100.00;100368.16;4909644;29;20023;-76
2023/07/12 03:39:38;;;;;;;4.90;1.40;;;;;;;15.84;100.00;100378.34;4908208;29;20302;-76
2023/07/12 03:42:04;;;;;;;5.10;1.50;;;;;;;15.82;100.00;100377.91;4942854;29;20067;-76
2023/07/12 03:44:29;;;;;;;9.07;1.48;;;;;;;15.75;100.00;100377.56;4944268;29;20031;-76
2023/07/12 03:46:55;;;;;;;5.80;1.55;;;;;;;15.72;100.00;100372.63;4940882;29;20392;-76
2023/07/12 03:49:20;;;;;;;6.15;1.63;;;;;;;15.69;100.00;100373.31;4926958;29;20444;-76
2023/07/12 03:51:46;;;;;;;4.20;1.35;;;;;;;15.69;100.00;100370.50;4936891;29;20031;-76
2023/07/12 03:54:12;;;;;;;4.00;1.60;;;;;;;15.68;100.00;100374.44;4942684;29;20040;-76
2023/07/12 03:56:37;;;;;;;5.03;1.35;;;;;;;15.61;100.00;100374.09;4921145;29;20035;-75
2023/07/12 03:59:03;;;;;;;4.05;1.70;;;;;;;15.62;100.00;100386.94;4910958;29;20035;-76
2023/07/12 04:01:29;;;;;;;5.95;1.70;;;;;;;15.56;100.00;100388.25;4954945;29;20086;-76
2023/07/12 04:03:55;;;;;;;3.53;1.67;;;;;;;15.56;100.00;100393.88;4914949;29;20373;-76
2023/07/12 04:06:20;;;;;;;8.35;1.70;;;;;;;15.53;100.00;100389.75;4955317;29;20039;-76
2023/07/12 04:08:46;;;;;;;2.55;1.40;;;;;;;15.51;100.00;100385.63;4930435;29;20035;-76
2023/07/12 04:11:41;;;;;;;4.28;1.45;;;;;;;15.46;100.00;100394.19;4938555;29;20039;-76
2023/07/12 04:14:06;;;;;;;6.90;1.65;;;;;;;15.44;100.00;100394.53;4940099;29;20047;-76
2023/07/12 04:16:32;;;;;;;6.30;1.50;;;;;;;15.42;100.00;100400.44;4910365;29;20044;-76
2023/07/12 04:18:57;;;;;;;4.75;1.42;;;;;;;15.41;100.00;100398.81;4926280;29;20027;-76
2023/07/12 04:21:23;;;;;;;3.72;1.40;;;;;;;15.40;100.00;100396.31;4926202;29;20028;-76
2023/07/12 04:23:49;;;;;;;5.63;1.95;;;;;;;15.36;100.00;100406.53;4926459;29;20370;-76
2023/07/12 04:26:15;;;;;;;7.47;1.38;;;;;;;15.34;100.00;100406.84;4925992;29;20035;-76
2023/07/12 04:28:40;;;;;;;3.75;1.40;;;;;;;15.33;100.00;100408.03;4918385;29;20023;-76
2023/07/12 04:31:10;;;;;;;4.60;1.30;;;;;;;15.30;100.00;100411.47;4943501;29;20027;-76
2023/07/12 04:33:36;;;;;;;4.25;1.58;;;;;;;15.32;100.00;100417.59;4926211;29;20400;-76
2023/07/12 04:36:06;;;;;;;4.82;1.58;;;;;;;15.28;100.00;100421.34;4934310;29;20040;-76
2023/07/12 04:38:32;;;;;;;4.57;1.80;;;;;;;15.28;100.00;100424.16;4932801;29;20031;-76
2023/07/12 04:40:57;;;;;;;4.18;1.60;;;;;;;15.25;100.00;100427.59;4954557;29;20507;-76
2023/07/12 04:43:23;;;;;;;3.45;1.40;;;;;;;15.24;100.00;100426.78;4926004;29;20039;-76
2023/07/12 04:45:48;;;;;;;5.38;1.20;;;;;;;15.26;100.00;100424.47;4926047;29;20028;-76
2023/07/12 04:48:14;;;;;;;5.05;1.60;;;;;;;15.27;100.00;100430.91;4917406;29;20028;-76
2023/07/12 04:50:39;;;;;;;4.55;1.40;;;;;;;15.28;100.00;100433.38;4909666;29;20040;-76
2023/07/12 04:53:05;;;;;;;5.20;1.73;;;;;;;15.29;100.00;100432.19;4936738;29;20054;-76
2023/07/12 04:55:31;;;;;;;5.43;1.80;;;;;;;15.30;100.00;100424.66;4940409;29;20369;-76
2023/07/12 04:57:56;;;;;;;4.95;1.63;;;;;;;15.34;100.00;100425.63;4936357;29;20032;-76
2023/07/12 05:00:25;;;;;;;4.15;1.75;;;;;;;15.38;100.00;100430.25;4924067;29;20448;-76
2023/07/12 05:02:52;;;;;;;6.13;1.80;;;;;;;15.44;100.00;100435.69;4895976;28;20031;-76
2023/07/12 05:05:17;;;;;;;4.32;1.58;;;;;;;15.50;100.00;100438.00;4942483;29;20101;-76
2023/07/12 05:07:42;;;;;;;3.15;1.27;;;;;;;15.58;100.00;100436.34;4956479;28;20035;-76
2023/07/12 05:10:09;;;;;;;5.55;1.77;;;;;;;15.66;100.00;100432.72;4945316;29;20495;-76
2023/07/12 05:12:35;;;;;;;6.05;1.63;;;;;;;15.74;100.00;100442.28;4915715;29;20480;-76
2023/07/12 05:15:01;;;;;;;3.03;1.55;;;;;;;15.81;100.00;100451.84;4926512;29;20078;-76
2023/07/12 05:17:27;;;;;;;5.10;1.70;;;;;;;15.91;100.00;100449.84;4944190;29;20416;-76
2023/07/12 05:19:53;;;;;;;6.75;1.92;;;;;;;15.96;100.00;100455.28;4928843;29;20055;-76
2023/07/12 05:22:18;;;;;;;3.88;1.50;;;;;;;16.00;100.00;100445.06;4944469;29;20026;-76
2023/07/12 05:24:44;;;;;;;6.00;1.80;;;;;;;16.05;100.00;100453.31;4927379;29;20488;-76
2023/07/12 05:27:09;;;;;;;5.72;1.70;;;;;;;16.12;100.00;100442.41;4928454;29;20039;-76
2023/07/12 05:29:35;;;;;;;2.00;1.30;;;;;;;16.17;100.00;100441.41;4956920;29;20083;-76
2023/07/12 05:32:00;;;;;;;5.65;1.60;;;;;;;16.24;100.00;100442.53;4930113;29;20036;-76
2023/07/12 05:34:26;;;;;;;5.60;1.85;;;;;;;16.28;100.00;100440.72;4973475;28;20039;-76
2023/07/12 05:36:51;;;;;;;5.38;1.80;;;;;;;16.34;100.00;100446.13;4926897;29;20471;-76
2023/07/12 05:39:16;;;;;;;6.22;1.77;;;;;;;16.39;100.00;100455.19;4974069;28;20035;-76
2023/07/12 05:41:42;;;;;;;4.78;2.03;;;;;;;16.45;100.00;100447.41;4928107;29;20031;-76
2023/07/12 05:44:07;;;;;;;4.00;1.98;;;;;;;16.51;100.00;100457.28;4927920;29;20513;-76
2023/07/12 05:46:33;;;;;;;5.57;2.03;;;;;;;16.61;100.00;100461.72;4914132;29;20055;-76
2023/07/12 05:48:58;;;;;;;7.85;2.13;;;;;;;16.69;100.00;100467.28;4944022;28;20034;-76
2023/07/12 05:51:24;;;;;;;8.75;1.77;;;;;;;16.75;100.00;100460.31;4970268;28;20046;-76
2023/07/12 05:53:50;;;;;;;5.80;1.90;;;;;;;16.83;100.00;100463.47;4944151;28;20394;-76
2023/07/12 05:56:16;;;;;;;7.57;2.20;;;;;;;16.90;100.00;100464.56;4931198;28;20030;-76
2023/07/12 05:58:41;;;;;;;5.07;2.28;;;;;;;17.00;100.00;100463.38;4930313;29;20381;-76
2023/07/12 06:01:07;;;;;;;9.60;2.55;;;;;;;17.10;100.00;100474.19;4927624;29;20552;-76
2023/07/12 06:03:33;;;;;;;10.85;2.88;;;;;;;17.19;100.00;100477.78;4924361;29;20040;-76
2023/07/12 06:05:58;;;;;;;8.63;2.38;;;;;;;17.27;100.00;100473.25;4933368;29;20095;-76
2023/07/12 06:08:27;;;;;;;7.65;2.50;;;;;;;17.36;100.00;100484.44;4940389;29;20042;-76
2023/07/12 06:10:52;;;;;;;4.28;2.08;;;;;;;17.42;100.00;100481.09;4915674;29;20079;-76
2023/07/12 06:13:18;;;;;;;7.40;2.63;;;;;;;17.49;100.00;100490.94;4922231;29;20075;-76
2023/07/12 06:15:44;;;;;;;6.22;2.30;;;;;;;17.58;100.00;100489.72;4931637;29;20361;-76
2023/07/12 06:18:09;;;;;;;6.18;2.42;;;;;;;17.66;100.00;100493.63;4944678;29;20039;-76
2023/07/12 06:20:35;;;;;;;14.10;3.08;;;;;;;17.73;100.00;100490.28;4916404;29;20032;-76
2023/07/12 06:23:01;;;;;;;7.00;2.53;;;;;;;17.81;100.00;100481.00;4920882;29;20493;-76
2023/07/12 06:25:26;;;;;;;11.55;2.72;;;;;;;17.90;100.00;100484.53;4932084;29;20445;-76
2023/07/12 06:27:51;;;;;;;5.70;2.20;;;;;;;17.98;100.00;100486.44;4906785;29;20038;-76
2023/07/12 06:30:17;;;;;;;8.50;2.55;;;;;;;18.07;100.00;100490.00;4916122;29;20071;-76
2023/07/12 06:32:43;;;;;;;7.80;2.50;;;;;;;18.18;100.00;100496.00;4941468;29;20037;-76
2023/07/12 06:35:08;;;;;;;8.77;2.40;;;;;;;18.30;100.00;100489.59;4953926;28;20062;-77
2023/07/12 06:37:34;;;;;;;7.75;2.38;;;;;;;18.40;100.00;100497.59;4927161;29;20126;-76
2023/07/12 06:39:59;;;;;;;7.07;2.67;;;;;;;18.55;100.00;100501.72;4942895;29;20046;-76
2023/07/12 06:42:28;;;;;;;7.53;2.20;;;;;;;18.71;100.00;100496.25;4953118;29;20082;-76
2023/07/12 06:44:53;;;;;;;6.15;2.35;;;;;;;18.88;100.00;100510.13;4939515;29;20445;-76
2023/07/12 06:47:19;;;;;;;10.45;2.10;;;;;;;19.07;100.00;100508.75;4922515;29;20043;-76
2023/07/12 06:49:44;;;;;;;10.38;2.47;;;;;;;19.25;100.00;100507.34;4933442;29;20483;-76
2023/07/12 06:52:10;;;;;;;7.25;2.33;;;;;;;19.42;100.00;100515.53;4930214;29;20027;-76
2023/07/12 06:54:36;;;;;;;6.82;1.98;;;;;;;19.64;100.00;100524.66;4926968;29;20388;-77
2023/07/12 06:57:03;;;;;;;7.85;1.80;;;;;;;19.76;100.00;100521.84;4939368;29;20043;-76
2023/07/12 06:59:28;;;;;;;6.47;1.90;;;;;;;19.90;100.00;100523.47;4913660;29;20042;-76
2023/07/12 07:01:54;;;;;;;8.85;2.00;;;;;;;20.01;100.00;100525.41;4936281;29;20032;-76
2023/07/12 07:04:19;;;;;;;6.95;2.35;;;;;;;20.14;100.00;100528.97;4940477;29;20063;-76
2023/07/12 07:06:45;;;;;;;7.38;2.25;;;;;;;20.27;100.00;100526.94;4921235;29;20035;-76
2023/07/12 07:09:10;;;;;;;6.30;2.20;;;;;;;20.45;100.00;100527.47;4921738;29;20476;-74
2023/07/12 07:11:36;;;;;;;9.88;2.50;;;;;;;20.53;100.00;100529.31;4920463;29;20032;-76
2023/07/12 07:14:02;;;;;;;6.28;1.90;;;;;;;20.72;100.00;100537.88;4905668;29;20040;-76
2023/07/12 07:16:27;;;;;;;7.53;2.30;;;;;;;20.86;100.00;100533.81;4936761;29;20039;-76
2023/07/12 07:18:53;;;;;;;9.20;2.40;;;;;;;20.95;100.00;100537.28;4913792;29;20027;-76
2023/07/12 07:21:18;;;;;;;7.47;2.60;;;;;;;21.06;100.00;100529.06;4927300;29;20111;-76
2023/07/12 07:23:44;;;;;;;10.40;2.72;;;;;;;21.16;100.00;100539.81;4947644;29;20068;-76
2023/07/12 07:26:10;;;;;;;11.40;2.55;;;;;;;21.26;100.00;100538.47;4939199;29;20031;-76
2023/07/12 07:28:39;;;;;;;6.95;2.60;;;;;;;21.38;100.00;100549.69;4932273;29;20122;-76
2023/07/12 07:31:04;;;;;;;9.27;2.60;;;;;;;21.54;100.00;100544.00;4942243;29;20056;-76
2023/07/12 07:33:30;;;;;;;9.70;2.78;;;;;;;21.69;100.00;100557.28;4921003;29;20020;-76
2023/07/12 07:35:55;;;;;;;6.85;2.78;;;;;;;21.82;100.00;100552.31;4958612;28;20035;-75
2023/07/12 07:38:26;;;;;;;6.30;2.58;;;;;;;21.99;100.00;100549.06;4923338;29;20110;-75
2023/07/12 07:40:52;;;;;;;4.47;2.10;;;;;;;22.16;100.00;100555.47;4926020;29;20043;-76
2023/07/12 07:43:18;;;;;;;6.40;2.17;;;;;;;22.32;100.00;100549.78;4952180;29;20439;-75
2023/07/12 07:45:43;;;;;;;7.28;2.70;;;;;;;22.49;100.00;100555.78;4936278;29;20043;-76
2023/07/12 07:48:10;;;;;;;7.53;2.65;;;;;;;22.70;100.00;100560.22;4948611;29;20039;-76
2023/07/12 07:50:36;;;;;;;12.40;2.75;;;;;;;22.79;100.00;100554.31;4941396;29;20035;-76
2023/07/12 07:53:02;;;;;;;8.77;2.40;;;;;;;22.94;100.00;100557.03;4938786;29;20043;-76
2023/07/12 07:55:27;;;;;;;8.60;2.20;;;;;;;23.09;100.00;100560.13;4940098;29;20036;-76
2023/07/12 07:57:53;;;;;;;8.70;2.10;;;;;;;23.24;100.00;100558.38;4943066;29;20039;-76
2023/07/12 08:00:18;;;;;;;7.28;2.45;;;;;;;23.39;100.00;100560.25;4938254;29;20452;-76
2023/07/12 08:02:44;;;;;;;5.38;2.08;;;;;;;23.52;100.00;100555.19;4929678;29;20111;-76
2023/07/12 08:05:10;;;;;;;6.88;1.65;;;;;;;23.69;100.00;100548.97;4954798;29;20399;-76
2023/07/12 08:07:40;;;;;;;6.80;2.00;;;;;;;23.84;100.00;100556.50;4937111;28;20053;-76
2023/07/12 08:10:07;;;;;;;5.05;1.70;;;;;;;24.01;100.00;100552.28;4960753;28;20110;-76
2023/07/12 08:12:32;;;;;;;6.90;1.63;;;;;;;24.13;100.00;100556.09;4928357;29;20094;-76
2023/07/12 08:14:58;;;;;;;8.13;1.98;;;;;;;24.22;100.00;100565.13;4932873;29;20042;-76
2023/07/12 08:17:26;;;;;;;5.40;1.63;;;;;;;24.33;100.00;100565.25;4937149;28;20038;-76
2023/07/12 08:19:53;;;;;;;5.07;1.45;;;;;;;24.38;100.00;100562.91;4960218;28;20126;-76
2023/07/12 08:22:21;;;;;;;5.28;1.40;;;;;;;24.49;100.00;100557.38;4958698;28;20469;-76
2023/07/12 08:24:47;;;;;;;6.80;1.50;;;;;;;24.55;100.00;100561.50;4941660;29;20511;-76
2023/07/12 08:27:13;;;;;;;7.55;1.70;;;;;;;24.54;100.00;100565.53;4944067;29;20071;-76
2023/07/12 08:29:39;;;;;;;4.65;1.15;;;;;;;24.63;100.00;100568.09;4942141;29;20400;-76
2023/07/12 08:32:05;;;;;;;9.23;1.85;;;;;;;24.63;100.00;100557.53;4929173;29;20106;-76
2023/07/12 08:34:30;;;;;;;7.72;1.65;;;;;;;24.71;100.00;100555.56;4945075;29;20089;-76
2023/07/12 08:36:56;;;;;;;4.38;1.30;;;;;;;24.80;99.00;100560.97;4963237;28;20041;-76
2023/07/12 08:39:22;;;;;;;7.32;1.65;;;;;;;24.92;98.29;100557.81;4945288;29;20035;-76
2023/07/12 08:41:47;;;;;;;4.53;1.33;;;;;;;25.02;96.65;100556.28;4938517;28;20461;-76
2023/07/12 08:44:14;;;;;;;7.82;1.50;;;;;;;25.05;94.18;100559.19;4962393;28;20035;-76
2023/07/12 08:46:43;;;;;;;4.80;1.70;;;;;;;25.21;94.98;100556.06;4915392;29;20035;-76
2023/07/12 08:49:09;;;;;;;6.72;1.80;;;;;;;25.30;94.21;100556.59;4929203;29;20502;-76
2023/07/12 08:51:35;;;;;;;6.10;1.90;;;;;;;25.44;92.51;100555.88;4929367;29;20019;-76
2023/07/12 08:54:01;;;;;;;5.45;1.40;;;;;;;25.63;92.68;100558.44;4958987;29;20031;-76
2023/07/12 08:56:26;;;;;;;7.28;1.48;;;;;;;25.79;90.08;100554.47;4937070;29;20035;-77
2023/07/12 08:58:53;;;;;;;6.95;1.95;;;;;;;25.96;88.95;100561.50;4957523;29;20118;-77
2023/07/12 09:01:50;;;;;;;4.53;1.10;;;;;;;26.14;88.47;100558.78;4928824;29;20047;-77
2023/07/12 09:04:24;;;;;;;4.90;1.38;;;;;;;26.33;87.80;100549.91;4954123;28;20051;-76
2023/07/12 09:06:53;;;;;;;10.10;1.10;;;;;;;26.46;83.26;100562.53;4931916;28;20053;-77
2023/07/12 09:09:19;;;;;;;6.75;1.67;;;;;;;26.60;83.69;100566.69;4921731;29;20082;-77
2023/07/12 09:11:45;;;;;;;3.35;1.38;;;;;;;26.71;83.95;100570.38;4948493;28;20058;-77
2023/07/12 09:14:21;;;;;;;5.40;1.75;;;;;;;26.82;84.78;100568.38;4944273;29;20067;-77
2023/07/12 09:16:57;;;;;;;7.60;2.08;;;;;;;26.90;82.44;100566.34;4956834;29;20094;-77
2023/07/12 09:19:25;;;;;;;7.18;1.75;;;;;;;27.06;81.21;100572.50;4897482;28;20035;-76
2023/07/12 09:21:54;;;;;;;6.13;1.48;;;;;;;27.13;76.33;100572.47;4897566;29;20024;-76
2023/07/12 09:24:24;;;;;;;6.43;1.27;;;;;;;27.23;71.84;100562.34;4928493;28;20095;-77
2023/07/12 09:26:50;;;;;;;6.10;1.30;;;;;;;27.32;71.65;100564.78;4918373;29;20423;-77
2023/07/12 09:29:21;;;;;;;4.40;1.30;;;;;;;27.37;69.76;100562.34;4936977;28;20086;-77
2023/07/12 09:31:46;;;;;;;7.65;1.27;;;;;;;27.44;70.87;100560.69;4922248;29;20046;-77
2023/07/12 09:34:23;;;;;;;5.65;1.40;;;;;;;27.47;71.15;100549.31;4944202;28;20035;-77
2023/07/12 09:36:56;;;;;;;4.97;1.10;;;;;;;27.49;66.65;100551.75;4926167;28;20035;-76
2023/07/12 09:39:21;;;;;;;3.90;0.88;;;;;;;27.52;66.03;100548.88;4924420;29;20028;-76
2023/07/12 09:41:50;;;;;;;4.75;1.20;;;;;;;27.51;66.45;100546.44;4928152;29;20031;-77
2023/07/12 09:44:15;;;;;;;5.13;1.20;;;;;;;27.51;67.79;100549.31;4973941;28;20039;-77
2023/07/12 09:46:43;;;;;;;3.65;1.20;;;;;;;27.48;66.26;100542.38;4919678;28;20038;-76
2023/07/12 09:49:12;;;;;;;6.03;1.20;;;;;;;27.60;67.30;100546.84;4962191;28;20062;-77
2023/07/12 09:51:42;;;;;;;4.70;1.23;;;;;;;27.68;66.81;100547.66;4943889;29;20488;-77
2023/07/12 09:54:31;;;;;;;5.68;1.00;;;;;;;27.83;65.09;100540.69;4944370;29;20033;-76
2023/07/12 09:57:03;;;;;;;3.95;0.88;;;;;;;27.89;62.49;100543.94;4943972;28;20038;-76
2023/07/12 09:59:50;;;;;;;3.65;1.08;;;;;;;27.96;58.88;100539.03;4918735;29;20063;-77
2023/07/12 10:02:37;;;;;;;3.88;1.13;;;;;;;27.98;58.29;100538.63;4943419;28;20036;-77
2023/07/12 10:05:09;;;;;;;5.25;0.98;;;;;;;28.06;56.46;100543.09;4915605;28;20126;-76
2023/07/12 10:07:54;;;;;;;4.47;0.93;;;;;;;28.09;56.42;100541.47;4955922;29;20051;-76
2023/07/12 10:10:42;;;;;;;3.90;1.00;;;;;;;28.15;57.03;100537.75;4979845;28;20038;-77
2023/07/12 10:13:19;;;;;;;5.80;0.82;;;;;;;28.24;56.46;100535.25;4959372;28;20085;-76
2023/07/12 10:15:45;;;;;;;3.20;0.93;;;;;;;28.39;57.20;100529.47;4962227;28;20487;-77
2023/07/12 10:18:18;;;;;;;6.10;1.13;;;;;;;28.56;55.00;100537.19;4946311;28;20057;-76
2023/07/12 10:20:44;;;;;;;5.90;1.02;;;;;;;28.68;55.12;100535.88;4945270;28;20031;-77
2023/07/12 10:23:10;;;;;;;4.70;0.73;;;;;;;28.77;53.92;100530.50;4940063;29;20082;-77
2023/07/12 10:25:37;;;;;;;5.60;1.10;;;;;;;28.86;52.50;100530.88;4958338;28;20053;-76
2023/07/12 10:28:40;;;;;;;3.65;1.30;;;;;;;29.04;52.41;100536.47;4940803;28;20133;-77
2023/07/12 10:31:36;;;;;;;4.80;0.95;;;;;;;29.29;52.16;100546.91;4872665;29;20084;-76
2023/07/12 10:34:19;;;;;;;3.28;0.80;;;;;;;29.37;49.46;100532.09;4849170;29;20042;-77
2023/07/12 10:36:45;;;;;;;3.53;0.90;;;;;;;29.40;48.44;100519.00;4847852;29;20410;-77
2023/07/12 10:39:11;;;;;;;2.55;0.85;;;;;;;29.53;48.62;100525.81;4847881;29;20132;-77
2023/07/12 10:41:44;;;;;;;3.40;0.80;;;;;;;29.52;47.99;100518.47;4863210;29;20036;-77
2023/07/12 10:44:20;;;;;;;4.07;0.90;;;;;;;29.53;49.67;100520.09;4832779;29;20123;-77
2023/07/12 10:46:53;;;;;;;3.78;1.17;;;;;;;29.53;47.80;100531.56;4846408;29;20256;-77
2023/07/12 10:49:36;;;;;;;4.30;0.73;;;;;;;29.60;47.31;100522.88;4871588;29;20041;-77
2023/07/12 10:52:09;;;;;;;3.70;0.75;;;;;;;29.55;47.07;100526.19;4862387;29;20034;-77
2023/07/12 10:54:35;;;;;;;2.45;0.82;;;;;;;29.71;45.70;100527.72;4848144;29;20037;-76
2023/07/12 10:57:18;;;;;;;4.63;0.85;;;;;;;29.69;46.21;100524.47;4863163;29;20146;-77
2023/07/12 10:59:45;;;;;;;4.13;0.70;;;;;;;29.65;45.68;100533.09;4863216;29;20053;-77
2023/07/12 11:02:26;;;;;;;5.00;0.90;;;;;;;29.57;43.64;100517.19;4863306;29;20037;-77
2023/07/12 11:04:52;;;;;;;2.23;0.73;;;;;;;29.61;44.34;100535.97;4904459;28;20086;-77
2023/07/12 11:07:17;;;;;;;3.28;0.70;;;;;;;29.57;43.42;100526.59;4947354;29;20035;-77
2023/07/12 11:09:43;;;;;;;3.03;1.00;;;;;;;29.57;44.62;100538.03;4972625;28;20462;-77
2023/07/12 11:12:08;;;;;;;3.58;1.02;;;;;;;29.58;44.52;100542.50;4961800;28;20082;-77
2023/07/12 11:14:37;;;;;;;5.63;0.90;;;;;;;29.54;44.59;100544.59;4942194;28;20039;-77
2023/07/12 11:17:05;;;;;;;3.53;0.90;;;;;;;29.55;44.08;100537.63;4941907;29;20035;-77
2023/07/12 11:19:40;;;;;;;5.28;0.93;;;;;;;29.47;45.01;100544.66;4941956;28;20055;-77
2023/07/12 11:22:22;;;;;;;3.60;0.70;;;;;;;29.43;45.12;100535.31;4932935;29;20122;-77
2023/07/12 11:24:58;;;;;;;4.25;0.88;;;;;;;29.41;46.00;100540.63;4923290;29;20027;-77